シカゴ/オヘア の空港の天気 - METARとTAF

シカゴ・オヘア国際空港 ( KORD / ORD ) - アメリカ イリノイ州シカゴ
飛行場実況気象(Metar)
観測時間07/17 03:51 CDT (07/17 08:51 UTC)
風向・風速北西 4m/s
視程10km以上
天気現象
なし
気温21.7℃
湿度63%
気圧1015.2hPa
METARKORD 170851Z 31007KT 10SM CLR 22/14 A3000 RMK AO2 SLP152 T02170144 53002 $
過去の天気等 Google飛行場航空写真 Wunderground天気予報

過去48時間のMETAR

飛行場予報(TAF)
発表時間: 7/17 03:57 CDT (7/17 08:57 UTC)
予報対象時間: 17日4時 CDT ~ 18日7時 CDT
風向・風速北北西 3m/s
視程10km以上
なし
17日10時 CDT から
風向・風速北北東 4m/s
視程10km以上
少しの雲 雲底高度 7620m
17日16時 CDT から
風向・風速北東 4m/s
視程10km以上
少しの雲 雲底高度 7620m
18日0時 CDT から
風向・風速不定 2m/s
視程10km以上
少しの雲 雲底高度 7620m
KORD 170857Z 1709/1812 33006KT P6SM SKC
FM171500 02007KT P6SM FEW250
FM172100 05008KT P6SM FEW250
FM180500 VRB03KT P6SM FEW250